sensor_id;sensor_type;location;lat;lon;timestamp;P1;durP1;ratioP1;P2;durP2;ratioP2
21601;SDS011;10963;50.934;4.668;2023-07-16T00:00:15;15.73;;;3.27;;
21601;SDS011;10963;50.934;4.668;2023-07-16T00:02:45;11.97;;;3.07;;
21601;SDS011;10963;50.934;4.668;2023-07-16T00:05:18;12.10;;;3.03;;
21601;SDS011;10963;50.934;4.668;2023-07-16T00:07:46;15.17;;;3.00;;
21601;SDS011;10963;50.934;4.668;2023-07-16T00:10:14;8.93;;;3.10;;
21601;SDS011;10963;50.934;4.668;2023-07-16T00:12:40;13.53;;;3.07;;
21601;SDS011;10963;50.934;4.668;2023-07-16T00:15:10;11.17;;;3.00;;
21601;SDS011;10963;50.934;4.668;2023-07-16T00:17:36;6.30;;;2.97;;
21601;SDS011;10963;50.934;4.668;2023-07-16T00:20:04;10.80;;;2.97;;
21601;SDS011;10963;50.934;4.668;2023-07-16T00:22:31;11.10;;;3.07;;
21601;SDS011;10963;50.934;4.668;2023-07-16T00:24:59;12.53;;;3.57;;
21601;SDS011;10963;50.934;4.668;2023-07-16T00:27:24;10.90;;;2.50;;
21601;SDS011;10963;50.934;4.668;2023-07-16T00:29:52;11.87;;;3.43;;
21601;SDS011;10963;50.934;4.668;2023-07-16T00:32:18;15.93;;;3.40;;
21601;SDS011;10963;50.934;4.668;2023-07-16T00:34:44;8.63;;;3.00;;
21601;SDS011;10963;50.934;4.668;2023-07-16T00:37:10;12.63;;;2.63;;
21601;SDS011;10963;50.934;4.668;2023-07-16T00:39:36;7.90;;;2.17;;
21601;SDS011;10963;50.934;4.668;2023-07-16T00:42:02;15.43;;;3.13;;
21601;SDS011;10963;50.934;4.668;2023-07-16T00:44:28;8.93;;;2.80;;
21601;SDS011;10963;50.934;4.668;2023-07-16T00:46:53;7.37;;;2.80;;
21601;SDS011;10963;50.934;4.668;2023-07-16T00:49:19;14.27;;;2.57;;
21601;SDS011;10963;50.934;4.668;2023-07-16T00:51:45;11.47;;;2.67;;
21601;SDS011;10963;50.934;4.668;2023-07-16T00:54:16;5.47;;;2.60;;
21601;SDS011;10963;50.934;4.668;2023-07-16T00:56:45;13.53;;;2.50;;
21601;SDS011;10963;50.934;4.668;2023-07-16T00:59:18;9.23;;;3.00;;
21601;SDS011;10963;50.934;4.668;2023-07-16T01:01:44;9.17;;;2.90;;
21601;SDS011;10963;50.934;4.668;2023-07-16T01:04:09;11.53;;;2.73;;
21601;SDS011;10963;50.934;4.668;2023-07-16T01:06:39;11.07;;;2.93;;
21601;SDS011;10963;50.934;4.668;2023-07-16T01:11:40;11.70;;;3.23;;
21601;SDS011;10963;50.934;4.668;2023-07-16T01:14:07;10.60;;;3.27;;
21601;SDS011;10963;50.934;4.668;2023-07-16T01:16:35;7.83;;;2.90;;
21601;SDS011;10963;50.934;4.668;2023-07-16T01:19:01;12.83;;;3.23;;
21601;SDS011;10963;50.934;4.668;2023-07-16T01:21:35;12.03;;;2.60;;
21601;SDS011;10963;50.934;4.668;2023-07-16T01:29:45;10.27;;;2.50;;
21601;SDS011;10963;50.934;4.668;2023-07-16T01:32:23;7.57;;;2.53;;
21601;SDS011;10963;50.934;4.668;2023-07-16T01:34:49;8.33;;;3.20;;
21601;SDS011;10963;50.934;4.668;2023-07-16T01:37:18;5.67;;;2.53;;
21601;SDS011;10963;50.934;4.668;2023-07-16T01:39:46;14.00;;;3.00;;
21601;SDS011;10963;50.934;4.668;2023-07-16T01:42:12;8.93;;;2.37;;
21601;SDS011;10963;50.934;4.668;2023-07-16T01:44:40;11.63;;;2.70;;
21601;SDS011;10963;50.934;4.668;2023-07-16T01:49:36;4.93;;;2.60;;
21601;SDS011;10963;50.934;4.668;2023-07-16T01:52:02;7.90;;;2.77;;
21601;SDS011;10963;50.934;4.668;2023-07-16T01:54:28;7.57;;;2.70;;
21601;SDS011;10963;50.934;4.668;2023-07-16T01:56:54;7.10;;;2.43;;
21601;SDS011;10963;50.934;4.668;2023-07-16T01:59:20;9.83;;;3.00;;
21601;SDS011;10963;50.934;4.668;2023-07-16T02:01:48;18.83;;;3.23;;
21601;SDS011;10963;50.934;4.668;2023-07-16T02:04:18;8.13;;;2.77;;
21601;SDS011;10963;50.934;4.668;2023-07-16T02:06:47;7.47;;;3.17;;
21601;SDS011;10963;50.934;4.668;2023-07-16T02:09:15;8.40;;;2.90;;
21601;SDS011;10963;50.934;4.668;2023-07-16T02:11:41;13.13;;;2.70;;
21601;SDS011;10963;50.934;4.668;2023-07-16T02:14:07;8.83;;;2.83;;
21601;SDS011;10963;50.934;4.668;2023-07-16T02:16:32;11.63;;;2.93;;
21601;SDS011;10963;50.934;4.668;2023-07-16T02:19:00;10.83;;;2.77;;
21601;SDS011;10963;50.934;4.668;2023-07-16T02:21:28;13.40;;;3.13;;
21601;SDS011;10963;50.934;4.668;2023-07-16T02:23:56;11.60;;;3.57;;
21601;SDS011;10963;50.934;4.668;2023-07-16T02:26:22;11.07;;;2.63;;
21601;SDS011;10963;50.934;4.668;2023-07-16T02:28:48;7.53;;;3.07;;
21601;SDS011;10963;50.934;4.668;2023-07-16T02:31:14;6.17;;;3.13;;
21601;SDS011;10963;50.934;4.668;2023-07-16T02:33:39;10.17;;;3.10;;
21601;SDS011;10963;50.934;4.668;2023-07-16T02:36:05;10.67;;;3.83;;
21601;SDS011;10963;50.934;4.668;2023-07-16T02:38:31;13.53;;;3.10;;
21601;SDS011;10963;50.934;4.668;2023-07-16T02:40:59;6.30;;;2.73;;
21601;SDS011;10963;50.934;4.668;2023-07-16T02:43:27;8.17;;;3.03;;
21601;SDS011;10963;50.934;4.668;2023-07-16T02:45:55;11.30;;;3.97;;
21601;SDS011;10963;50.934;4.668;2023-07-16T02:48:21;11.80;;;3.30;;
21601;SDS011;10963;50.934;4.668;2023-07-16T02:50:54;9.50;;;3.77;;
21601;SDS011;10963;50.934;4.668;2023-07-16T02:53:20;8.87;;;3.53;;
21601;SDS011;10963;50.934;4.668;2023-07-16T02:55:46;9.10;;;4.00;;
21601;SDS011;10963;50.934;4.668;2023-07-16T02:58:12;8.27;;;3.70;;
21601;SDS011;10963;50.934;4.668;2023-07-16T03:00:40;11.20;;;4.60;;
21601;SDS011;10963;50.934;4.668;2023-07-16T03:03:06;8.63;;;4.10;;
21601;SDS011;10963;50.934;4.668;2023-07-16T03:05:31;10.70;;;4.40;;
21601;SDS011;10963;50.934;4.668;2023-07-16T03:07:57;10.13;;;4.20;;
21601;SDS011;10963;50.934;4.668;2023-07-16T03:10:23;12.27;;;4.37;;
21601;SDS011;10963;50.934;4.668;2023-07-16T03:12:52;10.33;;;4.27;;
21601;SDS011;10963;50.934;4.668;2023-07-16T03:15:20;7.97;;;3.97;;
21601;SDS011;10963;50.934;4.668;2023-07-16T03:17:47;10.27;;;3.70;;
21601;SDS011;10963;50.934;4.668;2023-07-16T03:20:13;7.40;;;4.77;;
21601;SDS011;10963;50.934;4.668;2023-07-16T03:22:39;10.47;;;4.10;;
21601;SDS011;10963;50.934;4.668;2023-07-16T03:25:04;13.70;;;4.30;;
21601;SDS011;10963;50.934;4.668;2023-07-16T03:27:35;7.50;;;3.60;;
21601;SDS011;10963;50.934;4.668;2023-07-16T03:30:03;9.57;;;4.27;;
21601;SDS011;10963;50.934;4.668;2023-07-16T03:32:32;13.47;;;4.03;;
21601;SDS011;10963;50.934;4.668;2023-07-16T03:34:58;11.67;;;3.67;;
21601;SDS011;10963;50.934;4.668;2023-07-16T03:37:23;7.27;;;3.90;;
21601;SDS011;10963;50.934;4.668;2023-07-16T03:39:49;9.07;;;4.17;;
21601;SDS011;10963;50.934;4.668;2023-07-16T03:42:15;10.37;;;4.23;;
21601;SDS011;10963;50.934;4.668;2023-07-16T03:44:41;10.63;;;4.33;;
21601;SDS011;10963;50.934;4.668;2023-07-16T03:47:09;12.17;;;3.97;;
21601;SDS011;10963;50.934;4.668;2023-07-16T03:49:37;8.93;;;4.00;;
21601;SDS011;10963;50.934;4.668;2023-07-16T03:52:03;13.83;;;3.97;;
21601;SDS011;10963;50.934;4.668;2023-07-16T03:54:29;5.57;;;3.70;;
21601;SDS011;10963;50.934;4.668;2023-07-16T03:56:55;8.47;;;4.07;;
21601;SDS011;10963;50.934;4.668;2023-07-16T03:59:23;8.37;;;4.00;;
21601;SDS011;10963;50.934;4.668;2023-07-16T04:01:51;12.63;;;4.47;;
21601;SDS011;10963;50.934;4.668;2023-07-16T04:04:17;10.57;;;4.30;;
21601;SDS011;10963;50.934;4.668;2023-07-16T04:06:45;12.07;;;4.20;;
21601;SDS011;10963;50.934;4.668;2023-07-16T04:09:13;8.37;;;4.80;;
21601;SDS011;10963;50.934;4.668;2023-07-16T04:11:38;12.27;;;4.07;;
21601;SDS011;10963;50.934;4.668;2023-07-16T04:14:04;10.90;;;4.10;;
21601;SDS011;10963;50.934;4.668;2023-07-16T04:16:32;7.73;;;4.10;;
21601;SDS011;10963;50.934;4.668;2023-07-16T04:18:58;7.37;;;3.87;;
21601;SDS011;10963;50.934;4.668;2023-07-16T04:21:24;9.87;;;4.30;;
21601;SDS011;10963;50.934;4.668;2023-07-16T04:23:49;9.83;;;4.10;;
21601;SDS011;10963;50.934;4.668;2023-07-16T04:26:15;10.57;;;4.57;;
21601;SDS011;10963;50.934;4.668;2023-07-16T04:28:41;15.20;;;5.40;;
21601;SDS011;10963;50.934;4.668;2023-07-16T04:31:06;17.40;;;4.37;;
21601;SDS011;10963;50.934;4.668;2023-07-16T04:33:37;8.07;;;5.00;;
21601;SDS011;10963;50.934;4.668;2023-07-16T04:36:02;9.50;;;4.87;;
21601;SDS011;10963;50.934;4.668;2023-07-16T04:38:28;10.13;;;4.27;;
21601;SDS011;10963;50.934;4.668;2023-07-16T04:40:56;12.50;;;4.10;;
21601;SDS011;10963;50.934;4.668;2023-07-16T04:43:22;14.70;;;4.73;;
21601;SDS011;10963;50.934;4.668;2023-07-16T04:45:50;11.63;;;5.07;;
21601;SDS011;10963;50.934;4.668;2023-07-16T04:48:16;10.30;;;4.17;;
21601;SDS011;10963;50.934;4.668;2023-07-16T04:50:44;11.60;;;4.47;;
21601;SDS011;10963;50.934;4.668;2023-07-16T04:53:11;11.40;;;4.33;;
21601;SDS011;10963;50.934;4.668;2023-07-16T04:55:37;12.00;;;4.27;;
21601;SDS011;10963;50.934;4.668;2023-07-16T04:58:04;9.53;;;4.63;;
21601;SDS011;10963;50.934;4.668;2023-07-16T05:00:35;11.87;;;4.30;;
21601;SDS011;10963;50.934;4.668;2023-07-16T05:03:03;9.13;;;4.27;;
21601;SDS011;10963;50.934;4.668;2023-07-16T05:05:33;10.63;;;4.70;;
21601;SDS011;10963;50.934;4.668;2023-07-16T05:08:00;7.67;;;3.97;;
21601;SDS011;10963;50.934;4.668;2023-07-16T05:10:26;10.77;;;4.57;;
21601;SDS011;10963;50.934;4.668;2023-07-16T05:12:55;11.03;;;5.50;;
21601;SDS011;10963;50.934;4.668;2023-07-16T05:15:21;13.13;;;5.37;;
21601;SDS011;10963;50.934;4.668;2023-07-16T05:17:51;9.40;;;5.07;;
21601;SDS011;10963;50.934;4.668;2023-07-16T05:20:17;12.93;;;5.73;;
21601;SDS011;10963;50.934;4.668;2023-07-16T05:22:43;11.03;;;5.83;;
21601;SDS011;10963;50.934;4.668;2023-07-16T05:25:11;8.57;;;4.70;;
21601;SDS011;10963;50.934;4.668;2023-07-16T05:27:39;14.37;;;5.57;;
21601;SDS011;10963;50.934;4.668;2023-07-16T05:30:05;10.43;;;5.10;;
21601;SDS011;10963;50.934;4.668;2023-07-16T05:32:31;13.10;;;5.73;;
21601;SDS011;10963;50.934;4.668;2023-07-16T05:34:57;12.73;;;5.63;;
21601;SDS011;10963;50.934;4.668;2023-07-16T05:37:23;12.03;;;5.13;;
21601;SDS011;10963;50.934;4.668;2023-07-16T05:39:48;12.13;;;5.63;;
21601;SDS011;10963;50.934;4.668;2023-07-16T05:42:16;15.20;;;5.07;;
21601;SDS011;10963;50.934;4.668;2023-07-16T05:44:43;15.97;;;5.50;;
21601;SDS011;10963;50.934;4.668;2023-07-16T05:47:12;17.30;;;5.10;;
21601;SDS011;10963;50.934;4.668;2023-07-16T05:49:40;15.80;;;4.90;;
21601;SDS011;10963;50.934;4.668;2023-07-16T05:52:08;20.23;;;5.60;;
21601;SDS011;10963;50.934;4.668;2023-07-16T05:54:38;7.47;;;4.60;;
21601;SDS011;10963;50.934;4.668;2023-07-16T05:57:04;9.37;;;5.13;;
21601;SDS011;10963;50.934;4.668;2023-07-16T05:59:30;12.17;;;5.30;;
21601;SDS011;10963;50.934;4.668;2023-07-16T06:01:59;12.67;;;4.97;;
21601;SDS011;10963;50.934;4.668;2023-07-16T06:04:25;7.57;;;4.43;;
21601;SDS011;10963;50.934;4.668;2023-07-16T06:06:53;9.33;;;4.93;;
21601;SDS011;10963;50.934;4.668;2023-07-16T06:09:19;9.70;;;4.90;;
21601;SDS011;10963;50.934;4.668;2023-07-16T06:11:47;12.07;;;5.30;;
21601;SDS011;10963;50.934;4.668;2023-07-16T06:14:18;11.83;;;4.80;;
21601;SDS011;10963;50.934;4.668;2023-07-16T06:16:46;12.53;;;5.00;;
21601;SDS011;10963;50.934;4.668;2023-07-16T06:19:12;14.33;;;5.27;;
21601;SDS011;10963;50.934;4.668;2023-07-16T06:21:37;13.63;;;5.00;;
21601;SDS011;10963;50.934;4.668;2023-07-16T06:24:05;8.23;;;5.27;;
21601;SDS011;10963;50.934;4.668;2023-07-16T06:26:31;11.23;;;5.10;;
21601;SDS011;10963;50.934;4.668;2023-07-16T06:28:57;13.17;;;5.50;;
21601;SDS011;10963;50.934;4.668;2023-07-16T06:31:25;9.03;;;5.10;;
21601;SDS011;10963;50.934;4.668;2023-07-16T06:33:50;9.40;;;5.00;;
21601;SDS011;10963;50.934;4.668;2023-07-16T06:36:16;14.83;;;4.97;;
21601;SDS011;10963;50.934;4.668;2023-07-16T06:38:42;12.20;;;5.37;;
21601;SDS011;10963;50.934;4.668;2023-07-16T06:41:08;10.87;;;5.03;;
21601;SDS011;10963;50.934;4.668;2023-07-16T06:43:36;11.00;;;5.40;;
21601;SDS011;10963;50.934;4.668;2023-07-16T06:46:03;9.60;;;5.03;;
21601;SDS011;10963;50.934;4.668;2023-07-16T06:48:31;10.53;;;5.00;;
21601;SDS011;10963;50.934;4.668;2023-07-16T06:50:59;16.97;;;6.17;;
21601;SDS011;10963;50.934;4.668;2023-07-16T06:53:27;13.53;;;5.47;;
21601;SDS011;10963;50.934;4.668;2023-07-16T06:55:53;9.80;;;4.57;;
21601;SDS011;10963;50.934;4.668;2023-07-16T06:58:19;11.65;;;5.82;;
21601;SDS011;10963;50.934;4.668;2023-07-16T07:00:44;11.13;;;5.13;;
21601;SDS011;10963;50.934;4.668;2023-07-16T07:03:13;10.87;;;5.13;;
21601;SDS011;10963;50.934;4.668;2023-07-16T07:05:41;7.73;;;5.10;;
21601;SDS011;10963;50.934;4.668;2023-07-16T07:08:09;8.97;;;5.67;;
21601;SDS011;10963;50.934;4.668;2023-07-16T07:10:39;10.80;;;5.13;;
21601;SDS011;10963;50.934;4.668;2023-07-16T07:13:05;12.53;;;5.83;;
21601;SDS011;10963;50.934;4.668;2023-07-16T07:15:33;7.88;;;4.60;;
21601;SDS011;10963;50.934;4.668;2023-07-16T07:18:03;11.13;;;5.60;;
21601;SDS011;10963;50.934;4.668;2023-07-16T07:20:29;12.35;;;5.15;;
21601;SDS011;10963;50.934;4.668;2023-07-16T07:22:57;12.32;;;4.78;;
21601;SDS011;10963;50.934;4.668;2023-07-16T07:25:27;6.88;;;4.80;;
21601;SDS011;10963;50.934;4.668;2023-07-16T07:27:53;19.73;;;5.57;;
21601;SDS011;10963;50.934;4.668;2023-07-16T07:30:19;7.88;;;4.95;;
21601;SDS011;10963;50.934;4.668;2023-07-16T07:32:45;11.95;;;5.35;;
21601;SDS011;10963;50.934;4.668;2023-07-16T07:35:10;13.82;;;5.50;;
21601;SDS011;10963;50.934;4.668;2023-07-16T07:37:36;10.73;;;5.38;;
21601;SDS011;10963;50.934;4.668;2023-07-16T07:40:05;11.05;;;5.68;;
21601;SDS011;10963;50.934;4.668;2023-07-16T07:42:33;11.23;;;6.03;;
21601;SDS011;10963;50.934;4.668;2023-07-16T07:45:01;11.38;;;4.93;;
21601;SDS011;10963;50.934;4.668;2023-07-16T07:47:27;13.82;;;5.03;;
21601;SDS011;10963;50.934;4.668;2023-07-16T07:49:53;9.27;;;5.45;;
21601;SDS011;10963;50.934;4.668;2023-07-16T07:52:19;11.23;;;4.95;;
21601;SDS011;10963;50.934;4.668;2023-07-16T07:54:45;10.57;;;5.78;;
21601;SDS011;10963;50.934;4.668;2023-07-16T07:57:10;13.95;;;5.22;;
21601;SDS011;10963;50.934;4.668;2023-07-16T07:59:36;8.75;;;5.43;;
21601;SDS011;10963;50.934;4.668;2023-07-16T08:02:07;7.45;;;5.35;;
21601;SDS011;10963;50.934;4.668;2023-07-16T08:04:32;9.57;;;5.10;;
21601;SDS011;10963;50.934;4.668;2023-07-16T08:06:58;7.70;;;5.15;;
21601;SDS011;10963;50.934;4.668;2023-07-16T08:09:25;7.47;;;4.47;;
21601;SDS011;10963;50.934;4.668;2023-07-16T08:11:52;9.95;;;5.43;;
21601;SDS011;10963;50.934;4.668;2023-07-16T08:14:22;9.32;;;4.47;;
21601;SDS011;10963;50.934;4.668;2023-07-16T08:16:48;9.10;;;4.63;;
21601;SDS011;10963;50.934;4.668;2023-07-16T08:19:13;12.30;;;4.93;;
21601;SDS011;10963;50.934;4.668;2023-07-16T08:21:39;10.95;;;5.82;;
21601;SDS011;10963;50.934;4.668;2023-07-16T08:24:05;11.82;;;5.22;;
21601;SDS011;10963;50.934;4.668;2023-07-16T08:26:32;9.85;;;5.30;;
21601;SDS011;10963;50.934;4.668;2023-07-16T08:29:02;10.20;;;5.32;;
21601;SDS011;10963;50.934;4.668;2023-07-16T08:31:28;9.95;;;5.07;;
21601;SDS011;10963;50.934;4.668;2023-07-16T08:33:56;8.98;;;4.75;;
21601;SDS011;10963;50.934;4.668;2023-07-16T08:36:25;13.93;;;4.97;;
21601;SDS011;10963;50.934;4.668;2023-07-16T08:38:53;8.60;;;4.55;;
21601;SDS011;10963;50.934;4.668;2023-07-16T08:41:21;13.97;;;5.13;;
21601;SDS011;10963;50.934;4.668;2023-07-16T08:43:50;8.07;;;5.33;;
21601;SDS011;10963;50.934;4.668;2023-07-16T08:46:16;11.95;;;5.25;;
21601;SDS011;10963;50.934;4.668;2023-07-16T08:48:44;12.77;;;5.30;;
21601;SDS011;10963;50.934;4.668;2023-07-16T08:51:10;8.68;;;4.82;;
21601;SDS011;10963;50.934;4.668;2023-07-16T08:53:40;7.13;;;3.97;;
21601;SDS011;10963;50.934;4.668;2023-07-16T08:56:06;8.63;;;5.22;;
21601;SDS011;10963;50.934;4.668;2023-07-16T08:58:34;7.93;;;4.90;;
21601;SDS011;10963;50.934;4.668;2023-07-16T09:01:02;10.90;;;4.82;;
21601;SDS011;10963;50.934;4.668;2023-07-16T09:03:28;10.70;;;4.97;;
21601;SDS011;10963;50.934;4.668;2023-07-16T09:05:54;7.38;;;4.78;;
21601;SDS011;10963;50.934;4.668;2023-07-16T09:08:20;10.02;;;5.03;;
21601;SDS011;10963;50.934;4.668;2023-07-16T09:10:52;10.07;;;4.95;;
21601;SDS011;10963;50.934;4.668;2023-07-16T09:13:19;7.75;;;4.50;;
21601;SDS011;10963;50.934;4.668;2023-07-16T09:15:50;14.60;;;5.28;;
21601;SDS011;10963;50.934;4.668;2023-07-16T09:18:22;7.90;;;4.18;;
21601;SDS011;10963;50.934;4.668;2023-07-16T09:20:55;6.57;;;4.28;;
21601;SDS011;10963;50.934;4.668;2023-07-16T09:23:29;6.60;;;4.50;;
21601;SDS011;10963;50.934;4.668;2023-07-16T09:25:56;11.95;;;4.82;;
21601;SDS011;10963;50.934;4.668;2023-07-16T09:28:22;10.77;;;4.47;;
21601;SDS011;10963;50.934;4.668;2023-07-16T09:30:48;10.63;;;5.03;;
21601;SDS011;10963;50.934;4.668;2023-07-16T09:33:18;7.72;;;4.03;;
21601;SDS011;10963;50.934;4.668;2023-07-16T09:35:49;7.53;;;4.30;;
21601;SDS011;10963;50.934;4.668;2023-07-16T09:38:18;7.27;;;4.27;;
21601;SDS011;10963;50.934;4.668;2023-07-16T09:40:46;9.27;;;4.63;;
21601;SDS011;10963;50.934;4.668;2023-07-16T09:43:15;10.57;;;4.72;;
21601;SDS011;10963;50.934;4.668;2023-07-16T09:45:41;12.55;;;5.40;;
21601;SDS011;10963;50.934;4.668;2023-07-16T09:48:08;12.00;;;5.30;;
21601;SDS011;10963;50.934;4.668;2023-07-16T09:50:34;7.70;;;4.35;;
21601;SDS011;10963;50.934;4.668;2023-07-16T09:53:04;10.38;;;5.00;;
21601;SDS011;10963;50.934;4.668;2023-07-16T09:55:33;8.75;;;4.53;;
21601;SDS011;10963;50.934;4.668;2023-07-16T09:58:00;11.90;;;4.50;;
21601;SDS011;10963;50.934;4.668;2023-07-16T10:00:33;9.98;;;4.53;;
21601;SDS011;10963;50.934;4.668;2023-07-16T10:03:05;6.85;;;4.43;;
21601;SDS011;10963;50.934;4.668;2023-07-16T10:05:37;10.23;;;5.28;;
21601;SDS011;10963;50.934;4.668;2023-07-16T10:08:03;8.20;;;5.30;;
21601;SDS011;10963;50.934;4.668;2023-07-16T10:10:39;12.68;;;5.13;;
21601;SDS011;10963;50.934;4.668;2023-07-16T10:13:11;9.50;;;4.78;;
21601;SDS011;10963;50.934;4.668;2023-07-16T10:15:53;8.35;;;4.68;;
21601;SDS011;10963;50.934;4.668;2023-07-16T10:18:32;7.87;;;4.10;;
21601;SDS011;10963;50.934;4.668;2023-07-16T10:21:00;6.73;;;4.03;;
21601;SDS011;10963;50.934;4.668;2023-07-16T10:23:41;6.73;;;4.03;;
21601;SDS011;10963;50.934;4.668;2023-07-16T10:26:10;9.20;;;4.68;;
21601;SDS011;10963;50.934;4.668;2023-07-16T10:28:40;12.00;;;4.65;;
21601;SDS011;10963;50.934;4.668;2023-07-16T10:31:20;9.00;;;4.13;;
21601;SDS011;10963;50.934;4.668;2023-07-16T10:34:03;11.67;;;4.90;;
21601;SDS011;10963;50.934;4.668;2023-07-16T10:36:39;12.97;;;4.27;;
21601;SDS011;10963;50.934;4.668;2023-07-16T10:39:06;13.83;;;4.63;;
21601;SDS011;10963;50.934;4.668;2023-07-16T10:41:32;13.57;;;4.20;;
21601;SDS011;10963;50.934;4.668;2023-07-16T10:43:58;11.57;;;5.00;;
21601;SDS011;10963;50.934;4.668;2023-07-16T10:46:26;8.53;;;4.33;;
21601;SDS011;10963;50.934;4.668;2023-07-16T10:48:52;8.63;;;4.50;;
21601;SDS011;10963;50.934;4.668;2023-07-16T10:51:25;9.33;;;4.23;;
21601;SDS011;10963;50.934;4.668;2023-07-16T10:53:51;12.83;;;4.43;;
21601;SDS011;10963;50.934;4.668;2023-07-16T10:56:20;8.50;;;3.97;;
21601;SDS011;10963;50.934;4.668;2023-07-16T10:58:46;9.23;;;3.90;;
21601;SDS011;10963;50.934;4.668;2023-07-16T11:01:12;9.37;;;4.47;;
21601;SDS011;10963;50.934;4.668;2023-07-16T11:03:37;9.83;;;4.20;;
21601;SDS011;10963;50.934;4.668;2023-07-16T11:06:09;8.23;;;4.10;;
21601;SDS011;10963;50.934;4.668;2023-07-16T11:08:37;13.47;;;4.10;;
21601;SDS011;10963;50.934;4.668;2023-07-16T11:11:03;7.90;;;4.00;;
21601;SDS011;10963;50.934;4.668;2023-07-16T11:13:31;10.32;;;4.63;;
21601;SDS011;10963;50.934;4.668;2023-07-16T11:16:06;7.23;;;4.30;;
21601;SDS011;10963;50.934;4.668;2023-07-16T11:18:33;6.97;;;4.17;;
21601;SDS011;10963;50.934;4.668;2023-07-16T11:21:01;7.97;;;3.90;;
21601;SDS011;10963;50.934;4.668;2023-07-16T11:23:33;7.13;;;3.85;;
21601;SDS011;10963;50.934;4.668;2023-07-16T11:26:02;9.85;;;4.43;;
21601;SDS011;10963;50.934;4.668;2023-07-16T11:28:38;10.50;;;3.92;;
21601;SDS011;10963;50.934;4.668;2023-07-16T11:31:15;8.85;;;4.07;;
21601;SDS011;10963;50.934;4.668;2023-07-16T11:33:44;6.95;;;3.72;;
21601;SDS011;10963;50.934;4.668;2023-07-16T11:36:10;6.68;;;4.15;;
21601;SDS011;10963;50.934;4.668;2023-07-16T11:38:36;8.50;;;4.30;;
21601;SDS011;10963;50.934;4.668;2023-07-16T11:41:02;8.10;;;3.83;;
21601;SDS011;10963;50.934;4.668;2023-07-16T11:43:28;7.97;;;3.77;;
21601;SDS011;10963;50.934;4.668;2023-07-16T11:46:00;7.33;;;3.63;;
21601;SDS011;10963;50.934;4.668;2023-07-16T11:48:29;6.30;;;3.63;;
21601;SDS011;10963;50.934;4.668;2023-07-16T11:50:59;8.30;;;4.27;;
21601;SDS011;10963;50.934;4.668;2023-07-16T11:53:25;10.65;;;3.95;;
21601;SDS011;10963;50.934;4.668;2023-07-16T11:55:51;7.60;;;4.27;;
21601;SDS011;10963;50.934;4.668;2023-07-16T11:58:17;7.15;;;4.05;;
21601;SDS011;10963;50.934;4.668;2023-07-16T12:00:43;11.00;;;4.70;;
21601;SDS011;10963;50.934;4.668;2023-07-16T12:03:08;8.07;;;4.40;;
21601;SDS011;10963;50.934;4.668;2023-07-16T12:05:36;9.20;;;4.40;;
21601;SDS011;10963;50.934;4.668;2023-07-16T12:08:04;6.20;;;3.78;;
21601;SDS011;10963;50.934;4.668;2023-07-16T12:10:30;7.30;;;4.00;;
21601;SDS011;10963;50.934;4.668;2023-07-16T12:12:56;7.70;;;3.90;;
21601;SDS011;10963;50.934;4.668;2023-07-16T12:15:23;7.93;;;4.17;;
21601;SDS011;10963;50.934;4.668;2023-07-16T12:17:49;8.63;;;3.90;;
21601;SDS011;10963;50.934;4.668;2023-07-16T12:20:15;8.98;;;4.03;;
21601;SDS011;10963;50.934;4.668;2023-07-16T12:22:41;7.28;;;3.70;;
21601;SDS011;10963;50.934;4.668;2023-07-16T12:25:06;8.13;;;4.03;;
21601;SDS011;10963;50.934;4.668;2023-07-16T12:27:32;11.43;;;4.65;;
21601;SDS011;10963;50.934;4.668;2023-07-16T12:29:58;7.82;;;4.47;;
21601;SDS011;10963;50.934;4.668;2023-07-16T12:32:24;7.15;;;3.53;;
21601;SDS011;10963;50.934;4.668;2023-07-16T12:34:49;11.60;;;3.72;;
21601;SDS011;10963;50.934;4.668;2023-07-16T12:37:18;8.55;;;4.20;;
21601;SDS011;10963;50.934;4.668;2023-07-16T12:39:43;6.15;;;3.83;;
21601;SDS011;10963;50.934;4.668;2023-07-16T12:42:09;7.10;;;3.83;;
21601;SDS011;10963;50.934;4.668;2023-07-16T12:44:37;7.53;;;3.58;;
21601;SDS011;10963;50.934;4.668;2023-07-16T12:47:08;10.57;;;4.00;;
21601;SDS011;10963;50.934;4.668;2023-07-16T12:49:36;9.38;;;4.10;;
21601;SDS011;10963;50.934;4.668;2023-07-16T12:52:01;7.38;;;3.88;;
21601;SDS011;10963;50.934;4.668;2023-07-16T12:54:27;9.52;;;4.00;;
21601;SDS011;10963;50.934;4.668;2023-07-16T12:56:54;10.75;;;3.63;;
21601;SDS011;10963;50.934;4.668;2023-07-16T12:59:22;7.32;;;3.58;;
21601;SDS011;10963;50.934;4.668;2023-07-16T13:01:49;7.97;;;3.72;;
21601;SDS011;10963;50.934;4.668;2023-07-16T13:04:15;6.07;;;3.70;;
21601;SDS011;10963;50.934;4.668;2023-07-16T13:06:41;8.82;;;3.63;;
21601;SDS011;10963;50.934;4.668;2023-07-16T13:09:07;8.98;;;4.03;;
21601;SDS011;10963;50.934;4.668;2023-07-16T13:11:33;8.13;;;4.07;;
21601;SDS011;10963;50.934;4.668;2023-07-16T13:13:59;9.27;;;4.00;;
21601;SDS011;10963;50.934;4.668;2023-07-16T13:16:27;6.47;;;3.33;;
21601;SDS011;10963;50.934;4.668;2023-07-16T13:18:54;8.38;;;4.28;;
21601;SDS011;10963;50.934;4.668;2023-07-16T13:21:20;7.45;;;3.67;;
21601;SDS011;10963;50.934;4.668;2023-07-16T13:23:50;8.85;;;3.30;;
21601;SDS011;10963;50.934;4.668;2023-07-16T13:26:19;6.68;;;3.60;;
21601;SDS011;10963;50.934;4.668;2023-07-16T13:28:45;6.35;;;3.47;;
21601;SDS011;10963;50.934;4.668;2023-07-16T13:31:10;6.57;;;2.95;;
21601;SDS011;10963;50.934;4.668;2023-07-16T13:33:36;6.55;;;3.55;;
21601;SDS011;10963;50.934;4.668;2023-07-16T13:36:02;5.50;;;3.33;;
21601;SDS011;10963;50.934;4.668;2023-07-16T13:38:29;6.47;;;3.30;;
21601;SDS011;10963;50.934;4.668;2023-07-16T13:40:56;6.35;;;2.92;;
21601;SDS011;10963;50.934;4.668;2023-07-16T13:43:24;9.68;;;3.92;;
21601;SDS011;10963;50.934;4.668;2023-07-16T13:45:51;4.70;;;2.72;;
21601;SDS011;10963;50.934;4.668;2023-07-16T13:48:19;10.18;;;4.10;;
21601;SDS011;10963;50.934;4.668;2023-07-16T13:50:45;7.38;;;3.58;;
21601;SDS011;10963;50.934;4.668;2023-07-16T13:53:13;5.38;;;2.90;;
21601;SDS011;10963;50.934;4.668;2023-07-16T13:55:40;3.72;;;2.70;;
21601;SDS011;10963;50.934;4.668;2023-07-16T13:58:05;8.50;;;3.35;;
21601;SDS011;10963;50.934;4.668;2023-07-16T14:00:31;4.85;;;2.80;;
21601;SDS011;10963;50.934;4.668;2023-07-16T14:03:01;4.28;;;2.80;;
21601;SDS011;10963;50.934;4.668;2023-07-16T14:05:28;5.68;;;2.97;;
21601;SDS011;10963;50.934;4.668;2023-07-16T14:07:53;7.47;;;3.33;;
21601;SDS011;10963;50.934;4.668;2023-07-16T14:10:22;3.95;;;2.88;;
21601;SDS011;10963;50.934;4.668;2023-07-16T14:12:52;7.78;;;2.83;;
21601;SDS011;10963;50.934;4.668;2023-07-16T14:15:20;9.27;;;2.97;;
21601;SDS011;10963;50.934;4.668;2023-07-16T14:17:46;5.72;;;2.40;;
21601;SDS011;10963;50.934;4.668;2023-07-16T14:20:14;5.65;;;2.30;;
21601;SDS011;10963;50.934;4.668;2023-07-16T14:22:40;5.53;;;2.20;;
21601;SDS011;10963;50.934;4.668;2023-07-16T14:25:08;4.50;;;2.42;;
21601;SDS011;10963;50.934;4.668;2023-07-16T14:27:36;4.07;;;2.10;;
21601;SDS011;10963;50.934;4.668;2023-07-16T14:30:02;5.82;;;2.80;;
21601;SDS011;10963;50.934;4.668;2023-07-16T14:32:28;4.72;;;2.47;;
21601;SDS011;10963;50.934;4.668;2023-07-16T14:34:56;3.35;;;2.38;;
21601;SDS011;10963;50.934;4.668;2023-07-16T14:37:22;6.55;;;2.50;;
21601;SDS011;10963;50.934;4.668;2023-07-16T14:39:48;5.35;;;2.38;;
21601;SDS011;10963;50.934;4.668;2023-07-16T14:42:14;5.15;;;2.40;;
21601;SDS011;10963;50.934;4.668;2023-07-16T14:44:39;4.95;;;2.30;;
21601;SDS011;10963;50.934;4.668;2023-07-16T14:47:07;5.35;;;2.75;;
21601;SDS011;10963;50.934;4.668;2023-07-16T14:49:35;5.65;;;2.65;;
21601;SDS011;10963;50.934;4.668;2023-07-16T14:52:06;5.90;;;2.33;;